Time;durP1;ratioP1;P1;durP2;ratioP2;P2;SDS_P1;SDS_P2;PMS_P1;PMS_P2;Temp;Humidity;BMP_temperature;BMP_pressure;BME280_temperature;BME280_humidity;BME280_pressure;Samples;Min_cycle;Max_cycle;Signal;HPM_P1;HPM_P2
2021/01/04 00:02:34;;;;;;;141.10;43.47;;;;;;;8.65;89.74;100898.31;4875607;29;20048;-74
2021/01/04 00:05:17;;;;;;;145.02;46.80;;;;;;;8.74;90.09;100887.59;4900847;29;20083;-76
2021/01/04 00:08:14;;;;;;;138.55;44.35;;;;;;;8.81;90.00;100892.28;4928587;29;20051;-78
2021/01/04 00:11:02;;;;;;;132.65;43.75;;;;;;;8.73;89.04;100866.13;4930236;29;20051;-75
2021/01/04 00:13:34;;;;;;;148.35;42.53;;;;;;;8.88;89.07;100889.19;4922958;29;20091;-75
2021/01/04 00:16:17;;;;;;;134.77;41.20;;;;;;;8.79;89.16;100891.28;5003363;28;20042;-77
2021/01/04 00:19:11;;;;;;;152.13;44.03;;;;;;;8.62;89.95;100882.69;5011663;28;20501;-79
2021/01/04 00:21:50;;;;;;;144.30;45.35;;;;;;;8.58;90.09;100889.41;4912469;29;20051;-80
2021/01/04 00:24:27;;;;;;;140.40;46.00;;;;;;;8.70;90.19;100885.69;4912761;29;20502;-77
2021/01/04 00:27:07;;;;;;;151.63;47.15;;;;;;;8.70;89.83;100878.84;4912261;29;20060;-78
2021/01/04 00:29:32;;;;;;;167.60;44.65;;;;;;;8.68;90.11;100882.16;4912572;29;20047;-78
2021/01/04 00:32:01;;;;;;;164.52;47.00;;;;;;;8.61;90.58;100878.38;4912503;29;20047;-78
2021/01/04 00:34:42;;;;;;;172.35;47.58;;;;;;;8.31;90.75;100844.19;4910879;29;20518;-76
2021/01/04 00:37:35;;;;;;;196.07;50.33;;;;;;;8.28;92.07;100868.06;4911674;29;20442;-74
2021/01/04 00:40:38;;;;;;;177.40;48.90;;;;;;;8.30;92.12;100834.69;4911689;29;20080;-75
2021/01/04 00:43:06;;;;;;;157.82;46.15;;;;;;;8.43;91.95;100871.41;4873773;29;20045;-75
2021/01/04 00:45:43;;;;;;;167.07;46.65;;;;;;;8.30;92.41;100863.88;4873913;29;20049;-75
2021/01/04 00:48:31;;;;;;;164.65;47.15;;;;;;;8.36;92.65;100864.22;4874882;29;20045;-76
2021/01/04 00:51:04;;;;;;;169.68;47.88;;;;;;;8.47;92.16;100853.63;4874712;29;20036;-76
2021/01/04 00:53:34;;;;;;;153.45;46.38;;;;;;;8.55;91.93;100863.50;4874792;29;20049;-72
2021/01/04 00:56:40;;;;;;;162.57;46.35;;;;;;;8.47;91.84;100861.34;4875422;29;20037;-76
2021/01/04 00:59:15;;;;;;;185.48;48.80;;;;;;;8.52;91.92;100852.16;4895935;29;20048;-76
2021/01/04 01:01:47;;;;;;;200.68;51.25;;;;;;;8.51;91.88;100856.44;4916043;29;20032;-74
2021/01/04 01:04:28;;;;;;;205.15;49.10;;;;;;;8.59;91.93;100846.53;4915301;29;20418;-74
2021/01/04 01:07:50;;;;;;;163.98;49.72;;;;;;;8.72;91.06;100851.50;4916039;29;20040;-75
2021/01/04 01:10:16;;;;;;;151.05;48.40;;;;;;;8.40;91.10;100800.94;4859605;29;20052;-74
2021/01/04 01:13:20;;;;;;;152.52;47.22;;;;;;;8.68;91.18;100840.97;4859115;29;20042;-76
2021/01/04 01:15:56;;;;;;;132.90;45.13;;;;;;;8.62;90.83;100828.66;4859723;29;20037;-76
2021/01/04 01:18:34;;;;;;;132.70;44.90;;;;;;;8.44;90.86;100826.00;4859574;29;20038;-74
2021/01/04 01:21:05;;;;;;;154.45;47.38;;;;;;;8.53;91.21;100834.22;4906088;29;20138;-75
2021/01/04 01:23:31;;;;;;;171.35;47.95;;;;;;;8.52;91.37;100822.19;4915524;29;20032;-75
2021/01/04 01:26:34;;;;;;;149.73;46.30;;;;;;;8.60;90.94;100816.50;4915863;29;20111;-73
2021/01/04 01:29:18;;;;;;;160.70;49.65;;;;;;;8.74;90.67;100824.13;4915614;29;20063;-77
2021/01/04 01:31:53;;;;;;;160.95;46.17;;;;;;;8.65;90.58;100818.53;4915393;29;20056;-73
2021/01/04 01:34:42;;;;;;;143.18;49.05;;;;;;;8.60;90.71;100817.41;4915570;29;20055;-73
2021/01/04 01:37:32;;;;;;;159.48;48.08;;;;;;;8.58;90.66;100811.28;4939825;29;20055;-74
2021/01/04 01:40:13;;;;;;;;;;;;;;;8.66;90.29;100810.00;4964981;28;20034;-77
2021/01/04 01:42:44;;;;;;;168.90;48.53;;;;;;;8.75;90.24;100801.84;5014274;28;20004;-76
2021/01/04 01:45:16;;;;;;;176.85;50.33;;;;;;;8.76;90.23;100795.91;5013920;28;20099;-76
2021/01/04 01:47:52;;;;;;;185.82;50.55;;;;;;;8.66;90.13;100806.53;5014240;28;20084;-76
2021/01/04 01:50:58;;;;;;;195.95;52.40;;;;;;;8.57;90.65;100807.84;5014071;28;20022;-77
2021/01/04 01:53:48;;;;;;;195.57;54.00;;;;;;;8.53;90.76;100780.19;4933888;29;20070;-76
2021/01/04 01:56:16;;;;;;;181.90;54.85;;;;;;;8.69;90.50;100794.69;4858913;29;20057;-76
2021/01/04 01:58:50;;;;;;;173.55;53.65;;;;;;;8.73;90.68;100795.75;4858975;29;20067;-75
2021/01/04 02:01:41;;;;;;;181.25;50.55;;;;;;;8.69;90.09;100776.69;4858823;29;20100;-75
2021/01/04 02:04:22;;;;;;;158.43;49.13;;;;;;;8.69;90.31;100786.97;4858803;29;20448;-74
2021/01/04 02:07:36;;;;;;;189.05;46.67;;;;;;;8.63;90.32;100778.94;4858583;29;20030;-75
2021/01/04 02:10:12;;;;;;;161.00;46.78;;;;;;;8.53;91.18;100771.59;4767698;30;20050;-77
2021/01/04 02:12:51;;;;;;;194.20;46.72;;;;;;;8.30;92.40;100779.00;4767756;30;20131;-76
2021/01/04 02:15:28;;;;;;;183.68;47.97;;;;;;;8.42;92.72;100789.91;4767801;30;20039;-75
2021/01/04 02:17:53;;;;;;;177.73;47.17;;;;;;;8.53;92.52;100792.16;4767673;30;20056;-72
2021/01/04 02:20:44;;;;;;;210.05;50.70;;;;;;;8.61;92.02;100785.72;4767790;30;20051;-74
2021/01/04 02:23:19;;;;;;;213.70;46.78;;;;;;;8.62;92.17;100779.75;4767606;30;20040;-73
2021/01/04 02:25:48;;;;;;;189.15;47.90;;;;;;;8.63;92.26;100781.53;4767578;30;20043;-73
2021/01/04 02:28:17;;;;;;;;;;;;;;;8.64;91.94;100785.00;4768148;30;20515;-75
2021/01/04 02:30:42;;;;;;;163.02;47.38;;;;;;;8.57;92.33;100769.25;4790379;29;19966;-75
2021/01/04 02:33:10;;;;;;;220.38;53.58;;;;;;;8.53;92.39;100767.31;4842118;29;20052;-75
2021/01/04 02:35:38;;;;;;;303.73;59.45;;;;;;;8.13;92.89;100700.09;4895607;29;20238;-72
2021/01/04 02:38:04;;;;;;;245.63;57.13;;;;;;;8.31;93.28;100752.47;4895022;29;20067;-74
2021/01/04 02:40:30;;;;;;;236.95;60.67;;;;;;;8.32;93.68;100763.63;4895429;29;20076;-74
2021/01/04 02:42:56;;;;;;;234.55;60.85;;;;;;;8.34;93.94;100756.88;4895638;29;20485;-73
2021/01/04 02:45:26;;;;;;;217.10;62.15;;;;;;;8.21;93.88;100748.53;4906453;29;20114;-76
2021/01/04 02:48:13;;;;;;;233.82;63.78;;;;;;;8.28;94.12;100762.59;5000555;28;20121;-75
2021/01/04 02:50:46;;;;;;;286.80;65.93;;;;;;;8.46;93.85;100762.69;4999538;28;20030;-74
2021/01/04 02:53:22;;;;;;;198.15;59.88;;;;;;;8.59;93.44;100759.03;5012881;28;20026;-74
2021/01/04 02:56:08;;;;;;;193.82;56.55;;;;;;;8.62;93.07;100761.72;5012829;28;20053;-75
2021/01/04 02:58:57;;;;;;;189.90;56.75;;;;;;;8.66;92.58;100737.94;5012852;28;20026;-77
2021/01/04 03:01:37;;;;;;;198.38;55.55;;;;;;;8.58;92.30;100758.16;4999991;28;20032;-73
2021/01/04 03:04:03;;;;;;;217.73;68.18;;;;;;;8.61;92.48;100754.84;5012459;28;20416;-77
2021/01/04 03:06:40;;;;;;;215.90;58.28;;;;;;;8.48;92.50;100762.75;5011329;28;20033;-74
2021/01/04 03:09:08;;;;;;;227.95;64.28;;;;;;;8.38;93.35;100762.25;5012208;28;20044;-73
2021/01/04 03:11:34;;;;;;;255.38;62.92;;;;;;;8.35;93.61;100759.53;5012488;28;20036;-73
2021/01/04 03:14:09;;;;;;;276.90;67.55;;;;;;;8.38;93.88;100757.09;5012458;28;20033;-73
2021/01/04 03:16:47;;;;;;;254.43;62.72;;;;;;;8.37;93.77;100751.88;5012570;28;20085;-73
2021/01/04 03:19:18;;;;;;;230.00;60.05;;;;;;;8.19;93.99;100749.28;5011742;28;20463;-70
2021/01/04 03:21:58;;;;;;;235.85;60.00;;;;;;;8.04;95.16;100733.94;5011188;28;20054;-72
2021/01/04 03:24:23;;;;;;;245.32;59.75;;;;;;;7.91;96.03;100723.03;5011948;28;20060;-73
2021/01/04 03:26:56;;;;;;;239.15;60.35;;;;;;;7.82;96.70;100711.38;5012430;28;20440;-73
2021/01/04 03:29:21;;;;;;;221.63;53.60;;;;;;;7.68;97.56;100698.69;5012175;28;20163;-72
2021/01/04 03:31:47;;;;;;;253.93;61.50;;;;;;;7.63;98.10;100699.25;5012017;28;20069;-74
2021/01/04 03:34:12;;;;;;;214.27;55.25;;;;;;;7.59;98.42;100703.38;5011859;28;20045;-72
2021/01/04 03:36:38;;;;;;;234.23;60.00;;;;;;;7.65;98.29;100702.78;5011988;28;20030;-71
2021/01/04 03:39:04;;;;;;;246.32;60.05;;;;;;;7.62;98.29;100724.06;5012308;28;20472;-72
2021/01/04 03:41:29;;;;;;;244.98;56.45;;;;;;;7.64;98.21;100716.44;5011910;28;20068;-73
2021/01/04 03:43:55;;;;;;;210.23;53.10;;;;;;;7.57;97.97;100698.13;5011969;28;20480;-71
2021/01/04 03:46:21;;;;;;;211.25;55.17;;;;;;;7.41;97.97;100664.72;5012072;28;20026;-72
2021/01/04 03:48:46;;;;;;;173.73;47.80;;;;;;;7.66;97.71;100700.28;5011419;28;20067;-72
2021/01/04 03:51:12;;;;;;;176.45;50.47;;;;;;;7.67;97.24;100703.75;5010720;28;20040;-76
2021/01/04 03:53:41;;;;;;;137.02;42.35;;;;;;;7.27;96.76;100648.59;5012231;28;20048;-73
2021/01/04 03:56:07;;;;;;;141.38;38.90;;;;;;;7.47;96.72;100716.44;5011647;28;20042;-77
2021/01/04 03:58:32;;;;;;;211.85;51.25;;;;;;;7.56;97.03;100710.88;4977210;28;20125;-75
2021/01/04 04:00:58;;;;;;;183.15;44.13;;;;;;;7.54;96.70;100685.13;5011585;28;20018;-74
2021/01/04 04:03:23;;;;;;;155.23;43.47;;;;;;;7.54;96.22;100673.94;5011592;28;20515;-72
2021/01/04 04:05:49;;;;;;;145.68;41.55;;;;;;;7.73;95.58;100704.94;5011609;28;20472;-73
2021/01/04 04:08:14;;;;;;;118.80;40.03;;;;;;;7.50;95.48;100702.84;5011556;28;20487;-76
2021/01/04 04:10:39;;;;;;;113.28;37.83;;;;;;;7.35;95.95;100708.06;5011745;28;20040;-72
2021/01/04 04:13:05;;;;;;;149.98;37.50;;;;;;;7.31;96.00;100712.16;5011528;28;20109;-72
2021/01/04 04:15:30;;;;;;;82.50;32.60;;;;;;;7.28;95.72;100702.59;5011739;28;20034;-73
2021/01/04 04:17:56;;;;;;;80.22;30.77;;;;;;;7.34;95.27;100690.88;5011112;28;20031;-74
2021/01/04 04:20:24;;;;;;;79.57;29.77;;;;;;;7.28;95.07;100694.88;5011937;28;20030;-73
2021/01/04 04:22:50;;;;;;;65.30;26.77;;;;;;;7.12;95.49;100707.69;5011593;28;20052;-74
2021/01/04 04:25:18;;;;;;;75.03;25.52;;;;;;;6.89;96.46;100724.38;5010424;28;20464;-77
2021/01/04 04:27:44;;;;;;;107.47;31.83;;;;;;;6.96;97.20;100724.81;5011425;28;20038;-74
2021/01/04 04:30:16;;;;;;;86.70;30.80;;;;;;;6.87;97.29;100693.50;5011216;28;20038;-77
2021/01/04 04:32:42;;;;;;;88.53;31.60;;;;;;;7.18;96.95;100726.00;5013703;28;20133;-72
2021/01/04 04:35:10;;;;;;;139.55;34.00;;;;;;;7.38;96.19;100718.50;5012717;28;20034;-77
2021/01/04 04:37:35;;;;;;;97.95;31.88;;;;;;;7.49;95.39;100696.84;4991993;28;20484;-77
2021/01/04 04:40:01;;;;;;;103.38;32.03;;;;;;;7.64;94.76;100706.16;4975597;28;20050;-76
2021/01/04 04:42:26;;;;;;;117.00;34.28;;;;;;;7.67;94.45;100694.34;4992150;28;20066;-76
2021/01/04 04:45:03;;;;;;;98.38;36.92;;;;;;;7.69;93.79;100703.03;4991947;28;20038;-76
2021/01/04 04:47:34;;;;;;;123.47;34.53;;;;;;;7.55;93.54;100692.03;4991968;28;20136;-76
2021/01/04 04:50:04;;;;;;;106.97;36.28;;;;;;;7.48;93.88;100689.94;4991916;28;20508;-76
2021/01/04 04:52:42;;;;;;;;;;;;;;;7.44;94.53;100688.03;4992121;28;20038;-75
2021/01/04 04:55:07;;;;;;;116.70;33.53;;;;;;;7.44;94.86;100682.88;4991939;28;20102;-74
2021/01/04 04:57:39;;;;;;;144.63;35.00;;;;;;;7.41;95.10;100678.47;4991222;28;20038;-75
2021/01/04 05:00:49;;;;;;;126.00;32.65;;;;;;;7.45;95.02;100680.38;4991695;28;20408;-75
2021/01/04 05:03:51;;;;;;;125.18;30.52;;;;;;;7.39;94.85;100679.16;4991602;28;20034;-76
2021/01/04 05:06:32;;;;;;;161.20;30.83;;;;;;;7.43;94.68;100696.53;4991682;28;20026;-74
2021/01/04 05:09:22;;;;;;;137.63;31.50;;;;;;;7.45;94.60;100700.03;5005830;28;20065;-78
2021/01/04 05:12:23;;;;;;;83.35;28.17;;;;;;;7.37;93.70;100691.94;5005419;28;20029;-75
2021/01/04 05:14:57;;;;;;;140.07;29.08;;;;;;;7.38;93.83;100687.69;4917285;29;20047;-78
2021/01/04 05:17:35;;;;;;;156.55;43.33;;;;;;;7.32;93.85;100700.22;4924565;29;20037;-77
2021/01/04 05:20:21;;;;;;;142.68;33.88;;;;;;;7.31;94.09;100698.44;4920667;29;20458;-76
2021/01/04 05:23:17;;;;;;;121.95;36.50;;;;;;;7.29;94.26;100700.94;4927990;29;20035;-75
2021/01/04 05:26:03;;;;;;;178.77;33.72;;;;;;;7.35;94.09;100698.69;4925902;29;20493;-74
2021/01/04 05:28:41;;;;;;;99.25;26.30;;;;;;;7.37;93.95;100688.50;4920161;29;20087;-77
2021/01/04 05:34:01;;;;;;;95.03;29.10;;;;;;;7.51;93.39;100684.06;5075060;28;20368;-77
2021/01/04 05:36:27;;;;;;;106.32;28.70;;;;;;;7.60;92.83;100690.59;5063975;28;20035;-77
2021/01/04 05:39:02;;;;;;;85.43;28.65;;;;;;;7.47;92.60;100654.78;5068880;28;20025;-71
2021/01/04 05:42:23;;;;;;;159.52;30.10;;;;;;;7.78;92.22;100694.91;5062915;28;20082;-68
2021/01/04 05:45:12;;;;;;;78.80;27.52;;;;;;;7.54;92.27;100685.13;5064770;28;20018;-74
2021/01/04 05:47:48;;;;;;;64.53;28.63;;;;;;;7.47;92.56;100677.03;5064482;28;20083;-76
2021/01/04 05:50:24;;;;;;;76.90;27.92;;;;;;;7.42;92.62;100672.50;5065852;28;20094;-72
2021/01/04 05:52:53;;;;;;;84.35;30.77;;;;;;;7.58;91.76;100671.63;5048908;28;20463;-74
2021/01/04 05:55:19;;;;;;;61.78;28.35;;;;;;;7.69;90.86;100663.59;5066052;28;20051;-73
2021/01/04 05:57:53;;;;;;;55.22;25.60;;;;;;;7.69;89.62;100672.19;5065684;28;20502;-74
2021/01/04 06:00:34;;;;;;;46.83;25.45;;;;;;;7.71;89.62;100674.84;5065824;28;20102;-73
2021/01/04 06:03:29;;;;;;;50.53;26.02;;;;;;;7.50;90.01;100642.09;5065923;28;20103;-74
2021/01/04 06:05:54;;;;;;;53.83;25.80;;;;;;;7.80;89.96;100679.56;5085764;28;20393;-74
2021/01/04 06:08:26;;;;;;;93.78;25.00;;;;;;;7.80;90.13;100683.03;5074640;28;20031;-73
2021/01/04 06:11:12;;;;;;;135.32;24.80;;;;;;;7.64;90.85;100670.19;5084077;28;20055;-72
2021/01/04 06:13:41;;;;;;;139.88;24.58;;;;;;;7.55;91.37;100666.34;5085584;28;20036;-76
2021/01/04 06:16:11;;;;;;;136.73;27.02;;;;;;;7.47;91.88;100672.75;5079367;28;20046;-75
2021/01/04 06:18:44;;;;;;;190.73;26.55;;;;;;;7.39;92.64;100672.34;5085547;28;20167;-74
2021/01/04 06:21:19;;;;;;;188.50;27.80;;;;;;;7.33;93.33;100673.69;5085188;28;20036;-76
2021/01/04 06:23:45;;;;;;;198.13;51.20;;;;;;;7.27;93.95;100674.25;5083115;28;20054;-73
2021/01/04 06:26:17;;;;;;;194.35;33.08;;;;;;;7.34;94.04;100671.22;5080129;28;20552;-71
2021/01/04 06:28:54;;;;;;;230.00;35.65;;;;;;;7.10;94.47;100627.13;5085560;28;20035;-74
2021/01/04 06:31:50;;;;;;;136.80;32.05;;;;;;;7.36;94.48;100653.31;5083085;28;20036;-74
2021/01/04 06:34:37;;;;;;;192.05;33.38;;;;;;;7.38;94.10;100654.31;5064309;28;20398;-75
2021/01/04 06:37:17;;;;;;;189.73;32.05;;;;;;;7.37;94.53;100660.25;5064722;28;20037;-75
2021/01/04 06:39:43;;;;;;;254.88;37.72;;;;;;;7.48;94.15;100659.13;5064143;28;20036;-75
2021/01/04 06:42:11;;;;;;;180.60;32.85;;;;;;;7.38;94.16;100646.59;5064781;28;20040;-74
2021/01/04 06:44:37;;;;;;;289.77;61.47;;;;;;;7.41;94.38;100665.63;5054151;28;20125;-74
2021/01/04 06:47:45;;;;;;;242.07;33.72;;;;;;;7.48;94.43;100664.25;5051534;28;20102;-74
2021/01/04 06:50:42;;;;;;;149.50;27.48;;;;;;;7.54;94.12;100669.72;5013832;28;20076;-80
2021/01/04 06:53:34;;;;;;;151.90;27.02;;;;;;;7.48;94.25;100664.25;4991770;28;20097;-78
2021/01/04 06:56:34;;;;;;;161.18;38.45;;;;;;;7.26;94.73;100637.44;4991755;28;20085;-71
2021/01/04 06:59:24;;;;;;;153.88;45.50;;;;;;;7.25;95.72;100656.22;4991584;28;20057;-78
2021/01/04 07:02:14;;;;;;;113.18;26.50;;;;;;;7.26;96.62;100683.66;4991773;28;20092;-75
2021/01/04 07:04:59;;;;;;;103.70;27.30;;;;;;;7.17;96.57;100672.88;4991293;28;20042;-76
2021/01/04 07:07:54;;;;;;;106.47;27.17;;;;;;;7.06;96.67;100648.31;4991518;28;20038;-74
2021/01/04 07:10:23;;;;;;;109.07;32.47;;;;;;;7.20;96.79;100670.50;4991829;28;20038;-72
2021/01/04 07:13:16;;;;;;;115.90;45.50;;;;;;;7.35;96.89;100665.31;4991469;28;20076;-74
2021/01/04 07:16:04;;;;;;;147.15;49.50;;;;;;;7.37;96.95;100661.09;4991594;28;20035;-75
2021/01/04 07:19:04;;;;;;;124.90;34.03;;;;;;;7.47;96.41;100683.03;4991604;28;20026;-77
2021/01/04 07:21:43;;;;;;;100.88;28.45;;;;;;;7.28;96.22;100630.69;4995372;28;20034;-72
2021/01/04 07:24:14;;;;;;;108.60;31.13;;;;;;;7.59;96.17;100667.38;5010981;28;20442;-72
2021/01/04 07:26:48;;;;;;;94.28;28.70;;;;;;;7.53;96.06;100662.81;5010932;28;20026;-73
2021/01/04 07:29:53;;;;;;;86.63;38.30;;;;;;;7.48;96.26;100678.75;5017551;28;20028;-74
2021/01/04 07:32:27;;;;;;;66.55;27.75;;;;;;;7.63;96.51;100663.25;5042314;28;20060;-74
2021/01/04 07:35:01;;;;;;;65.28;29.00;;;;;;;7.70;96.64;100658.53;5052931;28;20182;-76
2021/01/04 07:37:32;;;;;;;54.40;29.67;;;;;;;7.78;96.36;100662.38;5053142;28;20081;-75
2021/01/04 07:40:35;;;;;;;51.85;29.60;;;;;;;7.93;95.78;100654.56;5050338;28;20033;-76
2021/01/04 07:43:10;;;;;;;56.90;32.45;;;;;;;7.99;95.72;100653.09;5052922;28;20031;-75
2021/01/04 07:46:05;;;;;;;58.35;37.40;;;;;;;8.06;95.99;100650.94;5052754;28;20040;-75
2021/01/04 07:48:39;;;;;;;65.60;48.08;;;;;;;8.13;95.95;100638.38;5051915;28;20498;-77
2021/01/04 07:51:32;;;;;;;45.90;31.13;;;;;;;8.19;95.76;100642.13;5052430;28;20017;-71
2021/01/04 07:54:09;;;;;;;81.18;51.55;;;;;;;8.29;95.31;100647.72;5052344;28;20055;-73
2021/01/04 07:57:02;;;;;;;48.63;30.52;;;;;;;8.33;94.68;100647.94;5051834;28;20466;-73
2021/01/04 07:59:40;;;;;;;48.33;31.10;;;;;;;8.36;94.65;100642.97;5052290;28;20082;-73
2021/01/04 08:02:24;;;;;;;58.70;41.33;;;;;;;8.41;95.15;100640.59;5052521;28;20025;-71
2021/01/04 08:05:17;;;;;;;56.65;40.47;;;;;;;8.35;95.04;100628.34;5039598;28;20024;-74
2021/01/04 08:08:03;;;;;;;59.45;45.90;;;;;;;8.49;95.37;100625.59;5052526;28;20375;-74
2021/01/04 08:10:44;;;;;;;53.50;35.55;;;;;;;8.46;95.52;100628.91;5052389;28;20028;-74
2021/01/04 08:13:15;;;;;;;63.72;42.85;;;;;;;8.51;95.74;100630.00;5052186;28;20107;-75
2021/01/04 08:15:55;;;;;;;52.30;33.05;;;;;;;8.61;95.79;100622.69;5050602;28;20025;-74
2021/01/04 08:18:22;;;;;;;74.00;44.53;;;;;;;8.68;95.66;100611.88;5052240;28;20046;-73
2021/01/04 08:21:32;;;;;;;77.90;53.83;;;;;;;8.73;95.03;100620.69;5052183;28;20025;-79
2021/01/04 08:24:16;;;;;;;55.95;34.75;;;;;;;8.70;95.05;100602.56;5039964;28;20040;-73
2021/01/04 08:27:19;;;;;;;53.00;36.28;;;;;;;8.83;95.23;100607.44;5049422;28;20099;-77
2021/01/04 08:30:02;;;;;;;49.55;31.90;;;;;;;8.68;95.07;100576.72;5049295;28;20025;-76
2021/01/04 08:32:51;;;;;;;47.88;33.17;;;;;;;8.96;94.74;100608.00;5049181;28;20063;-75
2021/01/04 08:35:29;;;;;;;41.97;27.25;;;;;;;9.04;94.34;100597.25;5049406;28;20033;-74
2021/01/04 08:38:00;;;;;;;47.95;30.15;;;;;;;9.16;94.34;100588.28;5049442;28;20226;-76
2021/01/04 08:40:27;;;;;;;45.97;30.17;;;;;;;9.28;94.25;100583.69;5049036;28;20635;-78
2021/01/04 08:43:08;;;;;;;52.65;35.25;;;;;;;9.34;94.20;100576.22;5038400;28;20042;-75
2021/01/04 08:45:45;;;;;;;47.47;31.05;;;;;;;9.37;93.81;100578.06;5047280;28;20510;-75
2021/01/04 08:48:15;;;;;;;43.10;28.48;;;;;;;9.48;93.14;100586.25;5048731;28;20476;-75
2021/01/04 08:50:45;;;;;;;43.75;28.92;;;;;;;9.51;92.62;100573.53;5048776;28;20028;-75
2021/01/04 08:53:13;;;;;;;41.53;26.55;;;;;;;9.46;92.54;100544.06;5048474;28;20032;-75
2021/01/04 08:55:39;;;;;;;38.05;26.05;;;;;;;9.62;92.48;100566.22;5048446;28;20036;-74
2021/01/04 08:58:19;;;;;;;51.30;30.58;;;;;;;9.64;92.52;100562.88;5048784;28;20028;-75
2021/01/04 09:00:55;;;;;;;42.42;27.08;;;;;;;9.73;92.58;100561.53;5031934;28;20066;-75
2021/01/04 09:03:21;;;;;;;49.08;26.67;;;;;;;9.85;92.71;100557.75;5030940;28;20025;-75
2021/01/04 09:05:46;;;;;;;82.10;39.42;;;;;;;9.95;92.22;100551.28;5030362;28;20464;-72
2021/01/04 09:08:15;;;;;;;43.08;24.27;;;;;;;9.92;92.36;100537.38;5029818;28;20030;-75
2021/01/04 09:10:48;;;;;;;46.92;36.40;;;;;;;9.95;92.61;100532.34;5030729;28;20057;-76
2021/01/04 09:13:23;;;;;;;42.92;24.77;;;;;;;9.92;92.22;100521.91;5017471;28;20036;-76
2021/01/04 09:15:51;;;;;;;46.58;26.67;;;;;;;9.78;92.99;100492.97;5030538;28;20025;-75
2021/01/04 09:18:36;;;;;;;42.83;24.58;;;;;;;10.07;93.28;100519.06;5031102;28;20056;-75
2021/01/04 09:21:17;;;;;;;41.88;26.35;;;;;;;9.88;93.13;100484.78;5030662;28;20132;-75
2021/01/04 09:23:44;;;;;;;45.85;30.15;;;;;;;10.03;93.24;100518.94;5030672;28;20464;-74
2021/01/04 09:26:16;;;;;;;58.75;37.20;;;;;;;10.08;93.44;100495.03;5030586;28;20451;-75
2021/01/04 09:29:04;;;;;;;55.75;33.20;;;;;;;10.22;92.86;100504.19;5030588;28;20398;-75
2021/01/04 09:31:30;;;;;;;49.78;32.97;;;;;;;10.28;92.51;100491.53;5032105;28;20490;-76
2021/01/04 09:33:55;;;;;;;65.03;39.75;;;;;;;10.42;92.17;100493.75;5050485;28;20083;-75
2021/01/04 09:36:23;;;;;;;56.05;33.47;;;;;;;10.20;91.86;100459.38;5050367;28;20116;-74
2021/01/04 09:38:49;;;;;;;60.28;34.92;;;;;;;10.49;91.37;100485.44;5050073;28;20537;-76
2021/01/04 09:41:15;;;;;;;55.95;29.15;;;;;;;10.58;90.44;100479.75;5050838;28;20039;-75
2021/01/04 09:43:42;;;;;;;45.08;26.27;;;;;;;10.57;91.02;100463.38;5050413;28;20013;-77
2021/01/04 09:46:17;;;;;;;40.58;21.75;;;;;;;10.70;89.85;100471.59;5050489;28;20668;-76
2021/01/04 09:48:57;;;;;;;38.13;23.90;;;;;;;10.89;89.92;100478.28;5050624;28;20021;-76
2021/01/04 09:51:39;;;;;;;37.05;21.80;;;;;;;11.04;88.90;100478.84;5049988;28;20049;-72
2021/01/04 09:54:07;;;;;;;33.15;20.40;;;;;;;11.19;88.91;100465.56;5050514;28;20057;-74
2021/01/04 09:56:36;;;;;;;42.80;19.45;;;;;;;11.29;86.98;100459.00;5032569;28;20071;-75
2021/01/04 09:59:09;;;;;;;49.20;23.70;;;;;;;11.52;86.04;100454.59;5032360;28;20052;-75
2021/01/04 10:01:52;;;;;;;37.15;24.15;;;;;;;11.64;84.93;100452.41;5031094;28;20021;-75
2021/01/04 10:04:30;;;;;;;31.00;17.63;;;;;;;11.75;84.68;100447.59;5030464;28;20111;-74
2021/01/04 10:06:58;;;;;;;27.73;14.95;;;;;;;11.64;83.02;100416.22;5032375;28;20455;-75
2021/01/04 10:09:29;;;;;;;22.90;12.93;;;;;;;11.81;80.66;100434.84;5034306;28;20032;-72
2021/01/04 10:11:55;;;;;;;29.02;12.05;;;;;;;11.94;78.51;100417.13;5041114;28;20104;-73
2021/01/04 10:14:20;;;;;;;27.67;12.55;;;;;;;12.17;76.52;100419.56;5046011;28;20473;-72
2021/01/04 10:16:50;;;;;;;24.17;11.00;;;;;;;12.22;76.58;100392.09;5050642;28;20024;-74
2021/01/04 10:19:23;;;;;;;20.73;12.00;;;;;;;12.55;76.83;100417.19;5051684;28;20067;-76
2021/01/04 10:21:58;;;;;;;25.45;11.43;;;;;;;12.67;75.59;100404.56;5053898;28;20568;-75
2021/01/04 10:24:29;;;;;;;22.92;11.40;;;;;;;12.70;74.35;100398.63;5053760;28;20024;-75
2021/01/04 10:27:00;;;;;;;25.33;11.75;;;;;;;12.64;75.74;100388.09;5053846;28;20478;-75
2021/01/04 10:29:26;;;;;;;22.83;10.82;;;;;;;12.65;76.02;100374.28;5054246;28;20060;-76
2021/01/04 10:32:09;;;;;;;17.08;8.48;;;;;;;12.73;73.74;100367.59;5053592;28;20057;-72
2021/01/04 10:34:43;;;;;;;20.25;7.72;;;;;;;13.03;71.45;100371.81;5043443;28;20044;-75
2021/01/04 10:37:33;;;;;;;16.10;7.50;;;;;;;13.10;70.32;100363.38;5068079;28;20044;-75
2021/01/04 10:40:08;;;;;;;16.75;7.55;;;;;;;13.17;70.74;100369.56;5053644;28;20025;-73
2021/01/04 10:42:35;;;;;;;23.73;7.93;;;;;;;13.02;70.65;100326.00;5053415;28;20021;-75
2021/01/04 10:45:06;;;;;;;22.55;10.02;;;;;;;13.29;70.27;100345.66;5053422;28;20079;-74
2021/01/04 10:47:38;;;;;;;20.52;8.27;;;;;;;13.43;68.46;100344.28;5053901;22;20486;-71
2021/01/04 10:50:19;;;;;;;29.05;13.35;;;;;;;13.37;70.28;100325.97;5028382;28;20025;-71
2021/01/04 10:52:56;;;;;;;27.92;10.32;;;;;;;13.56;69.73;100338.56;5033303;28;20029;-71
2021/01/04 10:55:25;;;;;;;19.85;8.10;;;;;;;13.45;69.41;100314.09;5033210;28;20509;-72
2021/01/04 10:57:57;;;;;;;18.17;8.32;;;;;;;13.53;68.15;100312.56;5033310;28;20509;-71
2021/01/04 11:00:28;;;;;;;20.08;8.70;;;;;;;13.55;68.26;100310.84;5033822;28;20087;-72
2021/01/04 11:02:56;;;;;;;15.30;7.43;;;;;;;13.60;68.27;100298.00;5033493;28;20021;-71
2021/01/04 11:05:37;;;;;;;16.30;7.10;;;;;;;13.66;66.08;100290.34;5033199;28;20080;-71
2021/01/04 11:08:13;;;;;;;18.75;7.32;;;;;;;13.63;66.80;100287.69;5035283;28;20064;-72
2021/01/04 11:10:39;;;;;;;17.95;8.32;;;;;;;13.66;67.56;100290.34;5033837;28;20099;-72
2021/01/04 11:13:04;;;;;;;19.13;7.47;;;;;;;13.65;66.98;100285.13;5037179;28;20025;-72
2021/01/04 11:15:34;;;;;;;17.95;7.97;;;;;;;13.67;66.54;100278.25;5045485;28;20479;-72
2021/01/04 11:18:06;;;;;;;19.25;9.15;;;;;;;13.66;67.78;100267.00;5031915;28;20029;-72
2021/01/04 11:20:33;;;;;;;19.75;9.15;;;;;;;13.71;67.52;100267.09;5033200;28;20025;-72
2021/01/04 11:23:07;;;;;;;17.55;7.45;;;;;;;13.68;66.54;100249.75;5033085;28;20029;-72
2021/01/04 11:25:34;;;;;;;17.10;6.78;;;;;;;13.74;66.93;100241.22;5033256;28;20031;-72
2021/01/04 11:28:00;;;;;;;17.17;8.30;;;;;;;13.75;67.19;100230.84;5032974;28;20025;-71
2021/01/04 11:30:29;;;;;;;19.48;7.15;;;;;;;13.75;67.67;100230.00;5032729;28;20060;-71
2021/01/04 11:33:05;;;;;;;19.23;7.22;;;;;;;13.82;64.89;100207.63;5033020;28;20033;-71
2021/01/04 11:35:31;;;;;;;16.08;6.68;;;;;;;13.70;64.88;100201.34;5034132;28;20044;-71
2021/01/04 11:37:58;;;;;;;24.58;12.95;;;;;;;13.40;65.55;100148.03;5033360;28;20463;-71
2021/01/04 11:40:25;;;;;;;23.75;8.45;;;;;;;13.67;64.43;100183.16;5032468;28;20017;-72
2021/01/04 11:42:50;;;;;;;16.58;7.38;;;;;;;13.55;64.52;100160.44;5032704;28;20087;-71
2021/01/04 11:45:21;;;;;;;12.73;5.43;;;;;;;13.75;63.54;100184.16;5033409;28;20033;-71
2021/01/04 11:47:47;;;;;;;16.20;6.55;;;;;;;13.76;63.18;100166.91;5031633;28;20495;-71
2021/01/04 11:50:16;;;;;;;23.98;7.30;;;;;;;13.78;63.24;100167.78;5032327;28;20037;-71
2021/01/04 11:52:41;;;;;;;16.85;6.53;;;;;;;13.70;61.54;100141.69;5032680;28;20037;-71
2021/01/04 11:55:13;;;;;;;14.20;5.30;;;;;;;13.76;61.87;100166.91;5032676;28;20075;-71
2021/01/04 11:57:38;;;;;;;14.30;5.38;;;;;;;13.80;61.86;100153.13;5030423;28;20030;-73